sensor_id;sensor_type;location;lat;lon;timestamp;P1;durP1;ratioP1;P2;durP2;ratioP2
11982;SDS011;72623;51.184;7.176;2023-11-22T00:00:12;14.23;;;9.90;;
11982;SDS011;72623;51.184;7.176;2023-11-22T00:02:39;16.30;;;9.83;;
11982;SDS011;72623;51.184;7.176;2023-11-22T00:05:06;15.50;;;10.33;;
11982;SDS011;72623;51.184;7.176;2023-11-22T00:07:34;14.60;;;10.37;;
11982;SDS011;72623;51.184;7.176;2023-11-22T00:10:02;14.70;;;9.53;;
11982;SDS011;72623;51.184;7.176;2023-11-22T00:12:29;13.27;;;9.47;;
11982;SDS011;72623;51.184;7.176;2023-11-22T00:15:01;13.93;;;9.97;;
11982;SDS011;72623;51.184;7.176;2023-11-22T00:17:30;15.37;;;10.60;;
11982;SDS011;72623;51.184;7.176;2023-11-22T00:19:57;16.07;;;10.23;;
11982;SDS011;72623;51.184;7.176;2023-11-22T00:22:25;14.40;;;10.63;;
11982;SDS011;72623;51.184;7.176;2023-11-22T00:24:52;13.77;;;10.27;;
11982;SDS011;72623;51.184;7.176;2023-11-22T00:27:20;14.70;;;11.17;;
11982;SDS011;72623;51.184;7.176;2023-11-22T00:29:47;15.33;;;10.63;;
11982;SDS011;72623;51.184;7.176;2023-11-22T00:32:13;13.60;;;9.63;;
11982;SDS011;72623;51.184;7.176;2023-11-22T00:34:40;17.20;;;11.43;;
11982;SDS011;72623;51.184;7.176;2023-11-22T00:37:06;16.77;;;11.00;;
11982;SDS011;72623;51.184;7.176;2023-11-22T00:39:33;15.43;;;10.37;;
11982;SDS011;72623;51.184;7.176;2023-11-22T00:42:00;17.77;;;10.77;;
11982;SDS011;72623;51.184;7.176;2023-11-22T00:44:26;15.73;;;10.37;;
11982;SDS011;72623;51.184;7.176;2023-11-22T00:46:53;14.37;;;9.77;;
11982;SDS011;72623;51.184;7.176;2023-11-22T00:49:20;13.40;;;9.33;;
11982;SDS011;72623;51.184;7.176;2023-11-22T00:51:47;14.80;;;10.43;;
11982;SDS011;72623;51.184;7.176;2023-11-22T00:54:15;16.60;;;10.23;;
11982;SDS011;72623;51.184;7.176;2023-11-22T00:56:43;14.67;;;10.23;;
11982;SDS011;72623;51.184;7.176;2023-11-22T00:59:10;14.83;;;10.60;;
11982;SDS011;72623;51.184;7.176;2023-11-22T01:01:37;14.40;;;10.23;;
11982;SDS011;72623;51.184;7.176;2023-11-22T01:04:03;19.47;;;10.43;;
11982;SDS011;72623;51.184;7.176;2023-11-22T01:06:32;15.10;;;9.93;;
11982;SDS011;72623;51.184;7.176;2023-11-22T01:08:59;15.03;;;9.67;;
11982;SDS011;72623;51.184;7.176;2023-11-22T01:11:26;14.73;;;10.77;;
11982;SDS011;72623;51.184;7.176;2023-11-22T01:13:52;13.87;;;9.93;;
11982;SDS011;72623;51.184;7.176;2023-11-22T01:16:19;14.67;;;10.33;;
11982;SDS011;72623;51.184;7.176;2023-11-22T01:18:46;14.37;;;10.20;;
11982;SDS011;72623;51.184;7.176;2023-11-22T01:21:13;14.97;;;9.53;;
11982;SDS011;72623;51.184;7.176;2023-11-22T01:23:40;12.27;;;8.77;;
11982;SDS011;72623;51.184;7.176;2023-11-22T01:26:06;16.03;;;9.90;;
11982;SDS011;72623;51.184;7.176;2023-11-22T01:28:33;14.07;;;9.60;;
11982;SDS011;72623;51.184;7.176;2023-11-22T01:31:00;12.37;;;9.20;;
11982;SDS011;72623;51.184;7.176;2023-11-22T01:33:27;14.70;;;8.87;;
11982;SDS011;72623;51.184;7.176;2023-11-22T01:35:54;13.80;;;10.00;;
11982;SDS011;72623;51.184;7.176;2023-11-22T01:38:21;14.40;;;9.60;;
11982;SDS011;72623;51.184;7.176;2023-11-22T01:40:48;13.10;;;9.50;;
11982;SDS011;72623;51.184;7.176;2023-11-22T01:43:19;11.83;;;8.53;;
11982;SDS011;72623;51.184;7.176;2023-11-22T01:45:48;12.43;;;9.03;;
11982;SDS011;72623;51.184;7.176;2023-11-22T01:48:15;15.20;;;9.03;;
11982;SDS011;72623;51.184;7.176;2023-11-22T01:50:43;12.43;;;9.03;;
11982;SDS011;72623;51.184;7.176;2023-11-22T01:53:10;12.17;;;8.87;;
11982;SDS011;72623;51.184;7.176;2023-11-22T01:55:42;15.57;;;9.20;;
11982;SDS011;72623;51.184;7.176;2023-11-22T01:58:11;14.27;;;9.50;;
11982;SDS011;72623;51.184;7.176;2023-11-22T02:00:50;16.30;;;10.63;;
11982;SDS011;72623;51.184;7.176;2023-11-22T02:03:18;14.30;;;9.97;;
11982;SDS011;72623;51.184;7.176;2023-11-22T02:05:45;12.53;;;8.20;;
11982;SDS011;72623;51.184;7.176;2023-11-22T02:08:13;14.87;;;9.70;;
11982;SDS011;72623;51.184;7.176;2023-11-22T02:10:39;14.33;;;9.57;;
11982;SDS011;72623;51.184;7.176;2023-11-22T02:13:07;15.73;;;10.27;;
11982;SDS011;72623;51.184;7.176;2023-11-22T02:15:35;16.77;;;10.23;;
11982;SDS011;72623;51.184;7.176;2023-11-22T02:18:02;12.47;;;9.17;;
11982;SDS011;72623;51.184;7.176;2023-11-22T02:20:30;15.93;;;9.90;;
11982;SDS011;72623;51.184;7.176;2023-11-22T02:23:01;15.80;;;10.77;;
11982;SDS011;72623;51.184;7.176;2023-11-22T02:25:35;15.77;;;10.53;;
11982;SDS011;72623;51.184;7.176;2023-11-22T02:28:01;15.30;;;9.63;;
11982;SDS011;72623;51.184;7.176;2023-11-22T02:30:28;18.63;;;10.30;;
11982;SDS011;72623;51.184;7.176;2023-11-22T02:32:55;14.60;;;10.00;;
11982;SDS011;72623;51.184;7.176;2023-11-22T02:35:22;15.83;;;9.90;;
11982;SDS011;72623;51.184;7.176;2023-11-22T02:37:48;17.37;;;11.03;;
11982;SDS011;72623;51.184;7.176;2023-11-22T02:40:21;16.07;;;11.00;;
11982;SDS011;72623;51.184;7.176;2023-11-22T02:42:49;15.00;;;10.07;;
11982;SDS011;72623;51.184;7.176;2023-11-22T02:45:19;14.00;;;9.77;;
11982;SDS011;72623;51.184;7.176;2023-11-22T02:47:48;15.87;;;11.07;;
11982;SDS011;72623;51.184;7.176;2023-11-22T02:50:16;15.57;;;10.50;;
11982;SDS011;72623;51.184;7.176;2023-11-22T02:52:42;19.33;;;10.70;;
11982;SDS011;72623;51.184;7.176;2023-11-22T02:55:09;17.40;;;11.33;;
11982;SDS011;72623;51.184;7.176;2023-11-22T02:57:36;14.33;;;10.60;;
11982;SDS011;72623;51.184;7.176;2023-11-22T03:00:05;16.43;;;11.30;;
11982;SDS011;72623;51.184;7.176;2023-11-22T03:02:32;18.87;;;11.20;;
11982;SDS011;72623;51.184;7.176;2023-11-22T03:04:59;16.97;;;11.17;;
11982;SDS011;72623;51.184;7.176;2023-11-22T03:07:26;19.63;;;10.83;;
11982;SDS011;72623;51.184;7.176;2023-11-22T03:09:53;16.47;;;11.37;;
11982;SDS011;72623;51.184;7.176;2023-11-22T03:12:20;18.27;;;11.87;;
11982;SDS011;72623;51.184;7.176;2023-11-22T03:14:48;21.03;;;11.53;;
11982;SDS011;72623;51.184;7.176;2023-11-22T03:17:15;19.07;;;12.63;;
11982;SDS011;72623;51.184;7.176;2023-11-22T03:19:41;18.40;;;12.13;;
11982;SDS011;72623;51.184;7.176;2023-11-22T03:22:10;21.37;;;12.60;;
11982;SDS011;72623;51.184;7.176;2023-11-22T03:24:37;18.03;;;11.57;;
11982;SDS011;72623;51.184;7.176;2023-11-22T03:27:04;22.23;;;13.20;;
11982;SDS011;72623;51.184;7.176;2023-11-22T03:29:31;17.20;;;12.07;;
11982;SDS011;72623;51.184;7.176;2023-11-22T03:31:59;18.13;;;11.77;;
11982;SDS011;72623;51.184;7.176;2023-11-22T03:34:26;17.30;;;11.87;;
11982;SDS011;72623;51.184;7.176;2023-11-22T03:36:53;18.13;;;11.43;;
11982;SDS011;72623;51.184;7.176;2023-11-22T03:39:20;15.93;;;11.03;;
11982;SDS011;72623;51.184;7.176;2023-11-22T03:41:47;15.13;;;10.90;;
11982;SDS011;72623;51.184;7.176;2023-11-22T03:44:15;15.40;;;10.10;;
11982;SDS011;72623;51.184;7.176;2023-11-22T03:46:42;17.33;;;10.70;;
11982;SDS011;72623;51.184;7.176;2023-11-22T03:49:09;16.57;;;10.40;;
11982;SDS011;72623;51.184;7.176;2023-11-22T03:51:36;11.97;;;9.40;;
11982;SDS011;72623;51.184;7.176;2023-11-22T03:54:03;12.37;;;9.60;;
11982;SDS011;72623;51.184;7.176;2023-11-22T03:56:31;14.23;;;9.43;;
11982;SDS011;72623;51.184;7.176;2023-11-22T03:58:58;12.53;;;9.27;;
11982;SDS011;72623;51.184;7.176;2023-11-22T04:01:25;15.83;;;9.80;;
11982;SDS011;72623;51.184;7.176;2023-11-22T04:03:51;13.10;;;8.97;;
11982;SDS011;72623;51.184;7.176;2023-11-22T04:06:19;14.87;;;10.13;;
11982;SDS011;72623;51.184;7.176;2023-11-22T04:08:46;16.70;;;9.37;;
11982;SDS011;72623;51.184;7.176;2023-11-22T04:11:13;13.57;;;9.03;;
11982;SDS011;72623;51.184;7.176;2023-11-22T04:13:40;13.50;;;9.07;;
11982;SDS011;72623;51.184;7.176;2023-11-22T04:16:07;14.17;;;8.87;;
11982;SDS011;72623;51.184;7.176;2023-11-22T04:18:36;14.50;;;8.37;;
11982;SDS011;72623;51.184;7.176;2023-11-22T04:21:06;13.03;;;8.27;;
11982;SDS011;72623;51.184;7.176;2023-11-22T04:23:33;11.37;;;7.83;;
11982;SDS011;72623;51.184;7.176;2023-11-22T04:26:01;10.27;;;7.67;;
11982;SDS011;72623;51.184;7.176;2023-11-22T04:28:29;9.20;;;7.23;;
11982;SDS011;72623;51.184;7.176;2023-11-22T04:30:56;10.53;;;7.93;;
11982;SDS011;72623;51.184;7.176;2023-11-22T04:33:23;11.47;;;8.37;;
11982;SDS011;72623;51.184;7.176;2023-11-22T04:35:53;13.90;;;7.90;;
11982;SDS011;72623;51.184;7.176;2023-11-22T04:38:21;13.47;;;7.33;;
11982;SDS011;72623;51.184;7.176;2023-11-22T04:40:48;8.67;;;6.90;;
11982;SDS011;72623;51.184;7.176;2023-11-22T04:43:15;9.63;;;6.50;;
11982;SDS011;72623;51.184;7.176;2023-11-22T04:45:41;13.50;;;7.33;;
11982;SDS011;72623;51.184;7.176;2023-11-22T04:48:09;10.47;;;6.67;;
11982;SDS011;72623;51.184;7.176;2023-11-22T04:50:36;13.50;;;6.60;;
11982;SDS011;72623;51.184;7.176;2023-11-22T04:53:02;10.10;;;6.90;;
11982;SDS011;72623;51.184;7.176;2023-11-22T04:55:29;10.47;;;6.17;;
11982;SDS011;72623;51.184;7.176;2023-11-22T04:57:56;10.77;;;6.93;;
11982;SDS011;72623;51.184;7.176;2023-11-22T05:00:22;10.33;;;6.90;;
11982;SDS011;72623;51.184;7.176;2023-11-22T05:02:49;9.13;;;6.57;;
11982;SDS011;72623;51.184;7.176;2023-11-22T05:05:16;10.30;;;7.47;;
11982;SDS011;72623;51.184;7.176;2023-11-22T05:07:43;11.00;;;7.03;;
11982;SDS011;72623;51.184;7.176;2023-11-22T05:10:10;8.97;;;6.67;;
11982;SDS011;72623;51.184;7.176;2023-11-22T05:12:37;11.47;;;6.93;;
11982;SDS011;72623;51.184;7.176;2023-11-22T05:15:04;10.37;;;6.70;;
11982;SDS011;72623;51.184;7.176;2023-11-22T05:17:31;9.57;;;7.03;;
11982;SDS011;72623;51.184;7.176;2023-11-22T05:19:58;11.87;;;6.87;;
11982;SDS011;72623;51.184;7.176;2023-11-22T05:22:24;10.17;;;6.97;;
11982;SDS011;72623;51.184;7.176;2023-11-22T05:24:51;9.03;;;6.50;;
11982;SDS011;72623;51.184;7.176;2023-11-22T05:27:18;11.10;;;7.43;;
11982;SDS011;72623;51.184;7.176;2023-11-22T05:29:44;10.67;;;6.50;;
11982;SDS011;72623;51.184;7.176;2023-11-22T05:32:11;11.03;;;7.23;;
11982;SDS011;72623;51.184;7.176;2023-11-22T05:34:38;9.60;;;6.30;;
11982;SDS011;72623;51.184;7.176;2023-11-22T05:37:05;12.47;;;7.17;;
11982;SDS011;72623;51.184;7.176;2023-11-22T05:39:32;9.83;;;6.87;;
11982;SDS011;72623;51.184;7.176;2023-11-22T05:41:59;11.07;;;6.80;;
11982;SDS011;72623;51.184;7.176;2023-11-22T05:44:25;11.63;;;7.00;;
11982;SDS011;72623;51.184;7.176;2023-11-22T05:46:52;11.00;;;7.33;;
11982;SDS011;72623;51.184;7.176;2023-11-22T05:49:19;10.23;;;7.07;;
11982;SDS011;72623;51.184;7.176;2023-11-22T05:51:46;11.07;;;7.23;;
11982;SDS011;72623;51.184;7.176;2023-11-22T05:54:12;12.57;;;7.07;;
11982;SDS011;72623;51.184;7.176;2023-11-22T05:56:41;11.13;;;6.90;;
11982;SDS011;72623;51.184;7.176;2023-11-22T05:59:08;11.33;;;7.17;;
11982;SDS011;72623;51.184;7.176;2023-11-22T06:01:35;13.40;;;7.57;;
11982;SDS011;72623;51.184;7.176;2023-11-22T06:04:01;12.47;;;8.03;;
11982;SDS011;72623;51.184;7.176;2023-11-22T06:06:28;13.37;;;6.97;;
11982;SDS011;72623;51.184;7.176;2023-11-22T06:08:55;11.60;;;7.50;;
11982;SDS011;72623;51.184;7.176;2023-11-22T06:11:22;10.63;;;7.40;;
11982;SDS011;72623;51.184;7.176;2023-11-22T06:13:50;12.43;;;7.40;;
11982;SDS011;72623;51.184;7.176;2023-11-22T06:16:16;11.97;;;7.43;;
11982;SDS011;72623;51.184;7.176;2023-11-22T06:18:43;13.53;;;8.07;;
11982;SDS011;72623;51.184;7.176;2023-11-22T06:21:10;12.07;;;7.10;;
11982;SDS011;72623;51.184;7.176;2023-11-22T06:23:37;11.83;;;7.87;;
11982;SDS011;72623;51.184;7.176;2023-11-22T06:26:04;11.23;;;7.60;;
11982;SDS011;72623;51.184;7.176;2023-11-22T06:28:31;13.13;;;7.97;;
11982;SDS011;72623;51.184;7.176;2023-11-22T06:30:58;15.87;;;8.23;;
11982;SDS011;72623;51.184;7.176;2023-11-22T06:33:24;12.80;;;7.57;;
11982;SDS011;72623;51.184;7.176;2023-11-22T06:35:51;12.77;;;8.03;;
11982;SDS011;72623;51.184;7.176;2023-11-22T06:38:19;14.53;;;7.17;;
11982;SDS011;72623;51.184;7.176;2023-11-22T06:40:45;13.23;;;8.07;;
11982;SDS011;72623;51.184;7.176;2023-11-22T06:43:12;12.60;;;7.90;;
11982;SDS011;72623;51.184;7.176;2023-11-22T06:45:39;14.93;;;8.20;;
11982;SDS011;72623;51.184;7.176;2023-11-22T06:48:06;14.70;;;8.10;;
11982;SDS011;72623;51.184;7.176;2023-11-22T06:50:39;11.60;;;7.90;;
11982;SDS011;72623;51.184;7.176;2023-11-22T06:53:07;13.47;;;7.83;;
11982;SDS011;72623;51.184;7.176;2023-11-22T06:55:33;13.13;;;8.40;;
11982;SDS011;72623;51.184;7.176;2023-11-22T06:58:03;14.13;;;8.80;;
11982;SDS011;72623;51.184;7.176;2023-11-22T07:00:31;15.87;;;8.80;;
11982;SDS011;72623;51.184;7.176;2023-11-22T07:02:58;13.93;;;8.57;;
11982;SDS011;72623;51.184;7.176;2023-11-22T07:05:24;17.20;;;8.93;;
11982;SDS011;72623;51.184;7.176;2023-11-22T07:07:51;12.50;;;8.53;;
11982;SDS011;72623;51.184;7.176;2023-11-22T07:10:20;13.57;;;9.10;;
11982;SDS011;72623;51.184;7.176;2023-11-22T07:12:47;16.80;;;9.17;;
11982;SDS011;72623;51.184;7.176;2023-11-22T07:15:14;16.37;;;8.57;;
11982;SDS011;72623;51.184;7.176;2023-11-22T07:17:40;18.03;;;12.00;;
11982;SDS011;72623;51.184;7.176;2023-11-22T07:20:07;17.03;;;10.10;;
11982;SDS011;72623;51.184;7.176;2023-11-22T07:22:37;18.20;;;10.40;;
11982;SDS011;72623;51.184;7.176;2023-11-22T07:25:06;16.63;;;8.80;;
11982;SDS011;72623;51.184;7.176;2023-11-22T07:27:43;17.40;;;9.47;;
11982;SDS011;72623;51.184;7.176;2023-11-22T07:30:12;16.90;;;9.47;;
11982;SDS011;72623;51.184;7.176;2023-11-22T07:32:39;16.43;;;9.50;;
11982;SDS011;72623;51.184;7.176;2023-11-22T07:35:07;24.93;;;9.20;;
11982;SDS011;72623;51.184;7.176;2023-11-22T07:37:34;13.67;;;8.63;;
11982;SDS011;72623;51.184;7.176;2023-11-22T07:40:04;15.37;;;8.40;;
11982;SDS011;72623;51.184;7.176;2023-11-22T07:42:33;21.13;;;10.07;;
11982;SDS011;72623;51.184;7.176;2023-11-22T07:44:59;14.20;;;8.90;;
11982;SDS011;72623;51.184;7.176;2023-11-22T07:47:26;20.20;;;11.95;;
11982;SDS011;72623;51.184;7.176;2023-11-22T07:49:53;20.47;;;10.07;;
11982;SDS011;72623;51.184;7.176;2023-11-22T07:52:21;16.67;;;10.37;;
11982;SDS011;72623;51.184;7.176;2023-11-22T07:54:48;17.53;;;9.73;;
11982;SDS011;72623;51.184;7.176;2023-11-22T07:57:14;17.00;;;9.23;;
11982;SDS011;72623;51.184;7.176;2023-11-22T07:59:42;14.77;;;8.83;;
11982;SDS011;72623;51.184;7.176;2023-11-22T08:02:09;17.67;;;9.43;;
11982;SDS011;72623;51.184;7.176;2023-11-22T08:04:36;11.63;;;8.57;;
11982;SDS011;72623;51.184;7.176;2023-11-22T08:07:06;13.05;;;11.40;;
11982;SDS011;72623;51.184;7.176;2023-11-22T08:09:33;12.63;;;8.90;;
11982;SDS011;72623;51.184;7.176;2023-11-22T08:12:00;9.87;;;7.57;;
11982;SDS011;72623;51.184;7.176;2023-11-22T08:14:28;13.63;;;8.23;;
11982;SDS011;72623;51.184;7.176;2023-11-22T08:16:55;12.25;;;8.38;;
11982;SDS011;72623;51.184;7.176;2023-11-22T08:19:24;16.20;;;8.20;;
11982;SDS011;72623;51.184;7.176;2023-11-22T08:21:52;11.03;;;8.10;;
11982;SDS011;72623;51.184;7.176;2023-11-22T08:24:19;13.00;;;6.93;;
11982;SDS011;72623;51.184;7.176;2023-11-22T08:26:46;11.00;;;7.23;;
11982;SDS011;72623;51.184;7.176;2023-11-22T08:29:12;12.57;;;8.13;;
11982;SDS011;72623;51.184;7.176;2023-11-22T08:31:39;9.67;;;7.03;;
11982;SDS011;72623;51.184;7.176;2023-11-22T08:34:06;11.23;;;7.77;;
11982;SDS011;72623;51.184;7.176;2023-11-22T08:36:34;9.67;;;6.80;;
11982;SDS011;72623;51.184;7.176;2023-11-22T08:39:01;11.68;;;8.73;;
11982;SDS011;72623;51.184;7.176;2023-11-22T08:41:30;11.43;;;7.33;;
11982;SDS011;72623;51.184;7.176;2023-11-22T08:43:57;9.57;;;7.03;;
11982;SDS011;72623;51.184;7.176;2023-11-22T08:46:25;11.10;;;6.80;;
11982;SDS011;72623;51.184;7.176;2023-11-22T08:48:52;9.53;;;6.63;;
11982;SDS011;72623;51.184;7.176;2023-11-22T08:51:18;8.43;;;6.20;;
11982;SDS011;72623;51.184;7.176;2023-11-22T08:53:46;9.60;;;5.97;;
11982;SDS011;72623;51.184;7.176;2023-11-22T08:56:13;6.67;;;5.20;;
11982;SDS011;72623;51.184;7.176;2023-11-22T08:58:40;8.57;;;5.63;;
11982;SDS011;72623;51.184;7.176;2023-11-22T09:01:08;7.97;;;5.80;;
11982;SDS011;72623;51.184;7.176;2023-11-22T09:03:35;8.15;;;6.43;;
11982;SDS011;72623;51.184;7.176;2023-11-22T09:06:03;7.00;;;6.27;;
11982;SDS011;72623;51.184;7.176;2023-11-22T09:08:32;5.97;;;5.33;;
11982;SDS011;72623;51.184;7.176;2023-11-22T09:10:58;7.17;;;5.00;;
11982;SDS011;72623;51.184;7.176;2023-11-22T09:13:25;6.60;;;5.10;;
11982;SDS011;72623;51.184;7.176;2023-11-22T09:15:52;6.65;;;4.78;;
11982;SDS011;72623;51.184;7.176;2023-11-22T09:18:18;7.55;;;4.85;;
11982;SDS011;72623;51.184;7.176;2023-11-22T09:20:46;4.35;;;3.85;;
11982;SDS011;72623;51.184;7.176;2023-11-22T09:23:13;6.93;;;4.57;;
11982;SDS011;72623;51.184;7.176;2023-11-22T09:25:40;4.60;;;4.03;;
11982;SDS011;72623;51.184;7.176;2023-11-22T09:28:07;5.63;;;3.90;;
11982;SDS011;72623;51.184;7.176;2023-11-22T09:30:34;4.90;;;3.97;;
11982;SDS011;72623;51.184;7.176;2023-11-22T09:35:41;6.00;;;3.23;;
11982;SDS011;72623;51.184;7.176;2023-11-22T09:38:09;4.67;;;2.70;;
11982;SDS011;72623;51.184;7.176;2023-11-22T09:40:40;4.87;;;3.27;;
11982;SDS011;72623;51.184;7.176;2023-11-22T09:43:12;4.27;;;3.10;;
11982;SDS011;72623;51.184;7.176;2023-11-22T09:45:42;3.43;;;2.87;;
11982;SDS011;72623;51.184;7.176;2023-11-22T09:48:18;3.87;;;3.07;;
11982;SDS011;72623;51.184;7.176;2023-11-22T09:53:30;4.03;;;2.73;;
11982;SDS011;72623;51.184;7.176;2023-11-22T09:55:59;3.65;;;3.20;;
11982;SDS011;72623;51.184;7.176;2023-11-22T09:58:29;3.47;;;2.53;;
11982;SDS011;72623;51.184;7.176;2023-11-22T10:00:57;4.53;;;2.97;;
11982;SDS011;72623;51.184;7.176;2023-11-22T10:03:27;3.93;;;2.77;;
11982;SDS011;72623;51.184;7.176;2023-11-22T10:05:57;4.55;;;2.70;;
11982;SDS011;72623;51.184;7.176;2023-11-22T10:08:25;5.23;;;2.83;;
11982;SDS011;72623;51.184;7.176;2023-11-22T10:10:55;3.73;;;2.77;;
11982;SDS011;72623;51.184;7.176;2023-11-22T10:13:22;5.50;;;2.33;;
11982;SDS011;72623;51.184;7.176;2023-11-22T10:15:49;3.50;;;2.20;;
11982;SDS011;72623;51.184;7.176;2023-11-22T10:18:17;3.03;;;2.40;;
11982;SDS011;72623;51.184;7.176;2023-11-22T10:20:46;3.77;;;2.17;;
11982;SDS011;72623;51.184;7.176;2023-11-22T10:23:14;3.27;;;2.30;;
11982;SDS011;72623;51.184;7.176;2023-11-22T10:25:46;2.40;;;2.00;;
11982;SDS011;72623;51.184;7.176;2023-11-22T10:28:17;4.07;;;1.97;;
11982;SDS011;72623;51.184;7.176;2023-11-22T10:30:47;4.57;;;2.23;;
11982;SDS011;72623;51.184;7.176;2023-11-22T10:33:16;2.97;;;2.13;;
11982;SDS011;72623;51.184;7.176;2023-11-22T10:35:48;6.77;;;1.90;;
11982;SDS011;72623;51.184;7.176;2023-11-22T10:38:18;2.10;;;1.77;;
11982;SDS011;72623;51.184;7.176;2023-11-22T10:40:45;3.77;;;1.50;;
11982;SDS011;72623;51.184;7.176;2023-11-22T10:43:19;2.50;;;1.70;;
11982;SDS011;72623;51.184;7.176;2023-11-22T10:45:48;2.10;;;1.90;;
11982;SDS011;72623;51.184;7.176;2023-11-22T10:48:18;1.87;;;1.50;;
11982;SDS011;72623;51.184;7.176;2023-11-22T10:50:46;2.50;;;1.57;;
11982;SDS011;72623;51.184;7.176;2023-11-22T10:53:19;3.53;;;1.63;;
11982;SDS011;72623;51.184;7.176;2023-11-22T10:55:49;2.60;;;1.73;;
11982;SDS011;72623;51.184;7.176;2023-11-22T10:58:23;5.17;;;1.50;;
11982;SDS011;72623;51.184;7.176;2023-11-22T11:00:50;2.17;;;1.50;;
11982;SDS011;72623;51.184;7.176;2023-11-22T11:03:17;3.30;;;1.53;;
11982;SDS011;72623;51.184;7.176;2023-11-22T11:05:57;2.07;;;1.60;;
11982;SDS011;72623;51.184;7.176;2023-11-22T11:08:25;2.13;;;1.50;;
11982;SDS011;72623;51.184;7.176;2023-11-22T11:10:54;2.47;;;1.40;;
11982;SDS011;72623;51.184;7.176;2023-11-22T11:13:22;1.40;;;1.27;;
11982;SDS011;72623;51.184;7.176;2023-11-22T11:15:49;2.17;;;1.33;;
11982;SDS011;72623;51.184;7.176;2023-11-22T11:18:18;1.77;;;1.33;;
11982;SDS011;72623;51.184;7.176;2023-11-22T11:20:52;3.63;;;1.40;;
11982;SDS011;72623;51.184;7.176;2023-11-22T11:23:24;1.93;;;1.30;;
11982;SDS011;72623;51.184;7.176;2023-11-22T11:25:52;2.07;;;1.30;;
11982;SDS011;72623;51.184;7.176;2023-11-22T11:28:21;1.40;;;1.30;;
11982;SDS011;72623;51.184;7.176;2023-11-22T11:30:50;1.93;;;1.40;;
11982;SDS011;72623;51.184;7.176;2023-11-22T11:33:33;2.93;;;1.70;;
11982;SDS011;72623;51.184;7.176;2023-11-22T11:36:01;4.43;;;2.43;;
11982;SDS011;72623;51.184;7.176;2023-11-22T11:38:30;2.37;;;1.47;;
11982;SDS011;72623;51.184;7.176;2023-11-22T11:41:05;2.43;;;1.57;;
11982;SDS011;72623;51.184;7.176;2023-11-22T11:43:42;2.40;;;2.00;;
11982;SDS011;72623;51.184;7.176;2023-11-22T11:46:18;2.57;;;1.30;;
11982;SDS011;72623;51.184;7.176;2023-11-22T11:48:47;2.27;;;1.40;;
11982;SDS011;72623;51.184;7.176;2023-11-22T11:51:14;1.67;;;1.30;;
11982;SDS011;72623;51.184;7.176;2023-11-22T11:53:41;1.87;;;1.50;;
11982;SDS011;72623;51.184;7.176;2023-11-22T11:56:09;3.10;;;1.50;;
11982;SDS011;72623;51.184;7.176;2023-11-22T11:58:35;1.93;;;1.50;;
11982;SDS011;72623;51.184;7.176;2023-11-22T12:01:06;1.90;;;1.53;;
11982;SDS011;72623;51.184;7.176;2023-11-22T12:03:33;1.27;;;1.13;;
11982;SDS011;72623;51.184;7.176;2023-11-22T12:06:01;2.13;;;1.33;;
11982;SDS011;72623;51.184;7.176;2023-11-22T12:08:29;2.77;;;1.40;;
11982;SDS011;72623;51.184;7.176;2023-11-22T12:11:01;2.60;;;1.73;;
11982;SDS011;72623;51.184;7.176;2023-11-22T12:13:33;1.93;;;1.23;;
11982;SDS011;72623;51.184;7.176;2023-11-22T12:16:03;2.80;;;1.30;;
11982;SDS011;72623;51.184;7.176;2023-11-22T12:18:41;2.80;;;1.43;;
11982;SDS011;72623;51.184;7.176;2023-11-22T12:21:12;2.00;;;1.70;;
11982;SDS011;72623;51.184;7.176;2023-11-22T12:23:40;2.30;;;1.75;;
11982;SDS011;72623;51.184;7.176;2023-11-22T12:26:11;2.53;;;1.50;;
11982;SDS011;72623;51.184;7.176;2023-11-22T12:28:39;3.33;;;1.50;;
11982;SDS011;72623;51.184;7.176;2023-11-22T12:31:11;1.90;;;1.37;;
11982;SDS011;72623;51.184;7.176;2023-11-22T12:33:42;2.27;;;1.43;;
11982;SDS011;72623;51.184;7.176;2023-11-22T12:36:10;2.05;;;1.60;;
11982;SDS011;72623;51.184;7.176;2023-11-22T12:38:40;1.67;;;1.23;;
11982;SDS011;72623;51.184;7.176;2023-11-22T12:41:06;1.20;;;1.00;;
11982;SDS011;72623;51.184;7.176;2023-11-22T12:43:34;2.73;;;1.27;;
11982;SDS011;72623;51.184;7.176;2023-11-22T12:46:01;1.90;;;1.20;;
11982;SDS011;72623;51.184;7.176;2023-11-22T12:48:32;1.97;;;1.30;;
11982;SDS011;72623;51.184;7.176;2023-11-22T12:51:00;2.40;;;1.33;;
11982;SDS011;72623;51.184;7.176;2023-11-22T12:53:27;2.27;;;1.50;;
11982;SDS011;72623;51.184;7.176;2023-11-22T12:55:54;1.90;;;1.40;;
11982;SDS011;72623;51.184;7.176;2023-11-22T12:58:22;1.93;;;1.57;;
11982;SDS011;72623;51.184;7.176;2023-11-22T13:00:50;2.53;;;1.53;;
11982;SDS011;72623;51.184;7.176;2023-11-22T13:03:23;2.77;;;1.50;;
11982;SDS011;72623;51.184;7.176;2023-11-22T13:05:50;2.23;;;1.40;;
11982;SDS011;72623;51.184;7.176;2023-11-22T13:08:18;2.63;;;1.90;;
11982;SDS011;72623;51.184;7.176;2023-11-22T13:10:47;4.47;;;1.70;;
11982;SDS011;72623;51.184;7.176;2023-11-22T13:13:24;1.87;;;1.33;;
11982;SDS011;72623;51.184;7.176;2023-11-22T13:15:52;1.57;;;1.23;;
11982;SDS011;72623;51.184;7.176;2023-11-22T13:18:19;1.50;;;1.27;;
11982;SDS011;72623;51.184;7.176;2023-11-22T13:20:46;3.07;;;1.60;;
11982;SDS011;72623;51.184;7.176;2023-11-22T13:23:13;3.10;;;1.50;;
11982;SDS011;72623;51.184;7.176;2023-11-22T13:25:41;3.77;;;2.23;;
11982;SDS011;72623;51.184;7.176;2023-11-22T13:28:08;3.27;;;1.77;;
11982;SDS011;72623;51.184;7.176;2023-11-22T13:30:34;3.27;;;1.70;;
11982;SDS011;72623;51.184;7.176;2023-11-22T13:33:01;2.03;;;1.43;;
11982;SDS011;72623;51.184;7.176;2023-11-22T13:35:28;2.10;;;1.80;;
11982;SDS011;72623;51.184;7.176;2023-11-22T13:37:56;2.90;;;1.93;;
11982;SDS011;72623;51.184;7.176;2023-11-22T13:40:24;3.47;;;2.20;;
11982;SDS011;72623;51.184;7.176;2023-11-22T13:42:55;2.35;;;1.95;;
11982;SDS011;72623;51.184;7.176;2023-11-22T13:45:23;1.87;;;1.40;;
11982;SDS011;72623;51.184;7.176;2023-11-22T13:47:50;1.83;;;1.30;;
11982;SDS011;72623;51.184;7.176;2023-11-22T13:50:22;2.63;;;1.90;;
11982;SDS011;72623;51.184;7.176;2023-11-22T13:52:51;3.47;;;1.60;;
11982;SDS011;72623;51.184;7.176;2023-11-22T13:55:19;2.50;;;1.75;;
11982;SDS011;72623;51.184;7.176;2023-11-22T13:57:51;1.77;;;1.53;;
11982;SDS011;72623;51.184;7.176;2023-11-22T14:00:19;3.43;;;2.00;;
11982;SDS011;72623;51.184;7.176;2023-11-22T14:02:52;3.00;;;1.60;;
11982;SDS011;72623;51.184;7.176;2023-11-22T14:05:24;3.30;;;1.57;;
11982;SDS011;72623;51.184;7.176;2023-11-22T14:07:52;2.10;;;1.43;;
11982;SDS011;72623;51.184;7.176;2023-11-22T14:10:19;2.90;;;1.67;;
11982;SDS011;72623;51.184;7.176;2023-11-22T14:12:47;2.75;;;2.03;;
11982;SDS011;72623;51.184;7.176;2023-11-22T14:15:15;3.00;;;2.28;;
11982;SDS011;72623;51.184;7.176;2023-11-22T14:17:42;2.83;;;1.80;;
11982;SDS011;72623;51.184;7.176;2023-11-22T14:20:12;2.43;;;2.00;;
11982;SDS011;72623;51.184;7.176;2023-11-22T14:22:39;2.47;;;2.10;;
11982;SDS011;72623;51.184;7.176;2023-11-22T14:25:07;2.23;;;1.80;;
11982;SDS011;72623;51.184;7.176;2023-11-22T14:27:37;2.93;;;2.00;;
11982;SDS011;72623;51.184;7.176;2023-11-22T14:30:05;2.80;;;1.90;;
11982;SDS011;72623;51.184;7.176;2023-11-22T14:32:33;3.65;;;2.80;;
11982;SDS011;72623;51.184;7.176;2023-11-22T14:35:04;4.33;;;2.77;;
11982;SDS011;72623;51.184;7.176;2023-11-22T14:37:32;3.13;;;2.63;;
11982;SDS011;72623;51.184;7.176;2023-11-22T14:40:00;4.03;;;3.13;;
11982;SDS011;72623;51.184;7.176;2023-11-22T14:42:29;4.22;;;3.35;;
11982;SDS011;72623;51.184;7.176;2023-11-22T14:44:56;4.53;;;2.80;;
11982;SDS011;72623;51.184;7.176;2023-11-22T14:47:23;3.60;;;2.50;;